createdAt,value
2022-09-12T00:00:23.067Z,6.18
2022-09-12T00:02:53.827Z,6.25
2022-09-12T00:05:20.429Z,8.95
2022-09-12T00:07:46.847Z,6.95
2022-09-12T00:10:13.689Z,7.25
2022-09-12T00:12:40.222Z,6.97
2022-09-12T00:15:07.343Z,8.20
2022-09-12T00:17:35.343Z,7.53
2022-09-12T00:20:02.307Z,6.13
2022-09-12T00:22:28.745Z,5.75
2022-09-12T00:24:55.156Z,4.50
2022-09-12T00:27:21.525Z,6.28
2022-09-12T00:29:48.005Z,6.00
2022-09-12T00:32:14.344Z,5.28
2022-09-12T00:34:40.763Z,8.63
2022-09-12T00:37:07.188Z,6.65
2022-09-12T00:39:33.711Z,8.52
2022-09-12T00:42:00.141Z,6.10
2022-09-12T00:44:26.535Z,9.30
2022-09-12T00:46:55.220Z,9.07
2022-09-12T00:49:32.677Z,6.82
2022-09-12T00:52:04.819Z,8.70
2022-09-12T00:54:38.502Z,7.18
2022-09-12T00:57:09.468Z,4.63
2022-09-12T00:59:43.635Z,5.95
2022-09-12T01:02:11.421Z,4.53
2022-09-12T01:04:39.590Z,5.68
2022-09-12T01:07:07.422Z,6.43
2022-09-12T01:09:34.368Z,6.00
2022-09-12T01:12:02.570Z,5.07
2022-09-12T01:14:31.138Z,5.75
2022-09-12T01:16:57.890Z,6.10
2022-09-12T01:20:02.732Z,5.93
2022-09-12T01:22:43.760Z,5.72
2022-09-12T01:25:31.832Z,4.22
2022-09-12T01:28:51.036Z,4.53
2022-09-12T01:31:29.563Z,5.32
2022-09-12T01:34:22.424Z,5.28
2022-09-12T01:37:02.067Z,6.85
2022-09-12T01:39:34.925Z,5.07
2022-09-12T01:42:15.163Z,5.95
2022-09-12T01:44:52.698Z,4.47
2022-09-12T01:47:41.629Z,4.35
2022-09-12T01:50:19.031Z,6.60
2022-09-12T01:53:00.924Z,7.63
2022-09-12T01:55:44.047Z,4.95
2022-09-12T01:58:21.623Z,9.23
2022-09-12T02:01:00.200Z,7.03
2022-09-12T02:03:37.959Z,4.57
2022-09-12T02:06:11.488Z,4.38
2022-09-12T02:08:47.248Z,4.10
2022-09-12T02:11:13.871Z,5.82
2022-09-12T02:13:55.898Z,5.00
2022-09-12T02:16:29.392Z,5.55
2022-09-12T02:19:02.940Z,6.78
2022-09-12T02:21:32.976Z,7.78
2022-09-12T02:24:02.880Z,5.25
2022-09-12T02:26:35.344Z,6.88
2022-09-12T02:29:03.221Z,8.68
2022-09-12T02:31:44.803Z,5.78
2022-09-12T02:34:56.498Z,5.05
2022-09-12T02:37:37.762Z,5.57
2022-09-12T02:40:06.896Z,6.18
2022-09-12T02:42:33.399Z,5.18
2022-09-12T02:44:59.739Z,5.63
2022-09-12T02:47:53.153Z,6.05
2022-09-12T02:50:19.989Z,4.65
2022-09-12T02:52:46.597Z,10.55
2022-09-12T02:55:14.524Z,5.55
2022-09-12T02:57:40.913Z,9.15
2022-09-12T03:00:08.364Z,4.97
2022-09-12T03:02:58.330Z,5.65
2022-09-12T03:05:40.080Z,5.25
2022-09-12T03:08:37.299Z,5.35
2022-09-12T03:11:32.495Z,6.85
2022-09-12T03:14:24.068Z,5.05
2022-09-12T03:17:13.519Z,4.30
2022-09-12T03:19:59.584Z,4.35
2022-09-12T03:22:33.495Z,4.70
2022-09-12T03:25:05.968Z,4.88
2022-09-12T03:27:36.710Z,3.90
2022-09-12T03:30:05.896Z,4.47
2022-09-12T03:32:47.416Z,7.60
2022-09-12T03:35:15.086Z,4.28
2022-09-12T03:37:41.866Z,4.15
2022-09-12T03:40:12.067Z,3.85
2022-09-12T03:42:39.185Z,4.40
2022-09-12T03:45:06.862Z,4.75
2022-09-12T03:47:33.667Z,4.28
2022-09-12T03:50:00.218Z,5.95
2022-09-12T03:52:26.653Z,6.90
2022-09-12T03:54:52.974Z,6.32
2022-09-12T03:57:19.516Z,4.85
2022-09-12T03:59:45.851Z,6.97
2022-09-12T04:02:13.512Z,6.50
2022-09-12T04:04:43.299Z,4.55
2022-09-12T04:07:11.185Z,4.90
2022-09-12T04:09:37.605Z,5.22
2022-09-12T04:12:04.287Z,4.20
2022-09-12T04:14:30.727Z,4.47
2022-09-12T04:16:57.228Z,5.50
2022-09-12T04:19:23.670Z,4.80
2022-09-12T04:21:50.100Z,4.93
2022-09-12T04:24:16.679Z,7.07
2022-09-12T04:26:43.246Z,7.57
2022-09-12T04:29:12.450Z,7.25
2022-09-12T04:31:39.392Z,5.65
2022-09-12T04:34:07.019Z,4.30
2022-09-12T04:36:34.333Z,5.38
2022-09-12T04:39:01.859Z,7.13
2022-09-12T04:41:30.983Z,8.48
2022-09-12T04:44:03.379Z,5.07
2022-09-12T04:46:35.201Z,6.10
2022-09-12T04:49:01.970Z,5.65
2022-09-12T04:51:33.939Z,7.07
2022-09-12T04:54:02.825Z,6.18
2022-09-12T04:56:29.775Z,5.63
2022-09-12T04:59:01.096Z,5.32
2022-09-12T05:01:29.775Z,6.68
2022-09-12T05:03:57.823Z,6.53
2022-09-12T05:06:28.099Z,9.55
2022-09-12T05:08:56.003Z,7.85
2022-09-12T05:11:32.994Z,5.50
2022-09-12T05:14:08.119Z,7.65
2022-09-12T05:16:34.657Z,7.10
2022-09-12T05:19:01.077Z,8.35
2022-09-12T05:21:27.897Z,8.27
2022-09-12T05:23:55.872Z,7.15
2022-09-12T05:26:23.297Z,7.00
2022-09-12T05:28:51.322Z,7.68
2022-09-12T05:31:17.727Z,8.65
2022-09-12T05:33:48.157Z,8.40
2022-09-12T05:36:21.086Z,6.40
2022-09-12T05:38:47.921Z,8.13
2022-09-12T05:41:24.720Z,7.40
2022-09-12T05:43:56.216Z,6.13
2022-09-12T05:46:28.070Z,6.20
2022-09-12T05:48:56.692Z,7.10
2022-09-12T05:51:28.333Z,6.28
2022-09-12T05:53:59.857Z,8.45
2022-09-12T05:56:28.755Z,7.90
2022-09-12T05:58:58.620Z,10.48
2022-09-12T06:01:27.006Z,9.23
2022-09-12T06:03:55.701Z,7.20
2022-09-12T06:06:24.612Z,8.18
2022-09-12T06:08:53.274Z,7.28
2022-09-12T06:11:22.832Z,8.13
2022-09-12T06:13:51.125Z,8.30
2022-09-12T06:16:20.015Z,8.93
2022-09-12T06:18:51.781Z,12.55
2022-09-12T06:21:18.622Z,11.38
2022-09-12T06:23:48.065Z,10.18
2022-09-12T06:26:16.592Z,12.18
2022-09-12T06:28:47.558Z,10.93
2022-09-12T06:31:20.433Z,9.23
2022-09-12T06:33:49.477Z,10.10
2022-09-12T06:36:22.388Z,9.80
2022-09-12T06:38:54.550Z,11.82
2022-09-12T06:41:20.981Z,11.55
2022-09-12T06:43:47.328Z,11.15
2022-09-12T06:46:13.749Z,11.77
2022-09-12T06:48:42.119Z,10.07
2022-09-12T06:51:20.153Z,8.65
2022-09-12T06:53:47.703Z,9.68
2022-09-12T06:56:19.309Z,10.02
2022-09-12T06:58:47.364Z,10.85
2022-09-12T07:01:18.947Z,9.52
2022-09-12T07:03:50.564Z,10.35
2022-09-12T07:06:19.445Z,12.98
2022-09-12T07:08:46.628Z,12.85
2022-09-12T07:11:17.180Z,11.32
2022-09-12T07:13:45.806Z,15.73
2022-09-12T07:16:17.279Z,13.60
2022-09-12T07:19:03.266Z,11.55
2022-09-12T07:21:30.258Z,12.68
2022-09-12T07:24:00.178Z,10.00
2022-09-12T07:26:28.927Z,11.70
2022-09-12T07:29:08.237Z,11.80
2022-09-12T07:31:44.203Z,11.52
2022-09-12T07:34:11.139Z,11.30
2022-09-12T07:36:37.695Z,11.32
2022-09-12T07:39:04.137Z,10.93
2022-09-12T07:41:33.946Z,9.77
2022-09-12T07:44:02.146Z,11.18
2022-09-12T07:46:30.345Z,9.63
2022-09-12T07:48:58.139Z,8.98
2022-09-12T07:51:25.720Z,8.38
2022-09-12T07:53:52.435Z,10.43
2022-09-12T07:56:19.870Z,9.38
2022-09-12T07:58:46.850Z,8.38
2022-09-12T08:01:24.782Z,9.55
2022-09-12T08:03:55.286Z,8.27
2022-09-12T08:06:26.246Z,6.68
2022-09-12T08:08:54.901Z,6.95
2022-09-12T08:11:22.923Z,7.68
2022-09-12T08:13:55.442Z,6.22
2022-09-12T08:16:25.246Z,7.82
2022-09-12T08:18:51.928Z,6.13
2022-09-12T08:21:20.987Z,9.45
2022-09-12T08:23:51.392Z,5.25
2022-09-12T08:26:17.964Z,6.35
2022-09-12T08:28:45.680Z,6.72
2022-09-12T08:31:15.215Z,6.43
2022-09-12T08:33:41.779Z,5.43
2022-09-12T08:36:11.093Z,4.55
2022-09-12T08:38:42.811Z,4.65
2022-09-12T08:41:20.310Z,3.60
2022-09-12T08:44:09.183Z,5.13
2022-09-12T08:46:44.652Z,5.97
2022-09-12T08:49:15.270Z,4.80
2022-09-12T08:51:42.575Z,4.38
2022-09-12T08:54:23.684Z,7.40
2022-09-12T08:56:52.108Z,5.13
2022-09-12T08:59:18.468Z,5.15
2022-09-12T09:01:45.562Z,4.30
2022-09-12T09:04:29.907Z,6.07
2022-09-12T09:07:18.467Z,4.40
2022-09-12T09:10:08.610Z,3.72
2022-09-12T09:13:05.634Z,4.32
2022-09-12T09:15:48.574Z,4.32
2022-09-12T09:18:28.767Z,3.83
2022-09-12T09:21:41.164Z,4.32
2022-09-12T09:24:11.431Z,4.53
2022-09-12T09:26:53.135Z,5.97
2022-09-12T09:29:23.775Z,5.57
2022-09-12T09:31:54.558Z,5.10
2022-09-12T09:34:23.564Z,7.40
2022-09-12T09:37:10.328Z,10.32
2022-09-12T09:40:06.505Z,3.28
2022-09-12T09:42:45.630Z,6.72
2022-09-12T09:45:16.778Z,4.07
2022-09-12T09:47:54.388Z,3.75
2022-09-12T09:50:20.796Z,3.17
2022-09-12T09:52:49.305Z,4.30
2022-09-12T09:55:21.855Z,2.80
2022-09-12T09:57:48.482Z,4.30
2022-09-12T10:00:27.607Z,4.88
2022-09-12T10:03:04.761Z,3.20
2022-09-12T10:05:35.638Z,4.53
2022-09-12T10:08:03.627Z,5.72
2022-09-12T10:10:29.996Z,4.25
2022-09-12T10:13:24.533Z,4.63
2022-09-12T10:16:01.046Z,5.15
2022-09-12T10:18:39.807Z,2.85
2022-09-12T10:21:31.792Z,2.63
2022-09-12T10:24:23.057Z,2.17
2022-09-12T10:27:09.273Z,3.67
2022-09-12T10:29:48.416Z,3.67
2022-09-12T10:32:28.579Z,2.00
2022-09-12T10:35:05.772Z,4.97
2022-09-12T10:37:38.064Z,3.45
2022-09-12T10:40:08.009Z,2.38
2022-09-12T10:42:48.052Z,5.15
2022-09-12T10:45:32.082Z,2.13
2022-09-12T10:48:04.123Z,3.75
2022-09-12T10:50:43.372Z,3.33
2022-09-12T10:53:25.131Z,6.03
2022-09-12T10:56:12.263Z,4.38
2022-09-12T10:59:03.573Z,6.28
2022-09-12T11:01:36.343Z,3.22
2022-09-12T11:04:43.006Z,2.28
2022-09-12T11:07:26.926Z,2.88
2022-09-12T11:10:14.485Z,2.70
2022-09-12T11:12:57.478Z,5.18
2022-09-12T11:15:45.892Z,3.13
2022-09-12T11:18:40.196Z,5.22
2022-09-12T11:21:21.464Z,3.15
2022-09-12T11:24:11.733Z,2.53
2022-09-12T11:27:00.148Z,2.22
2022-09-12T11:29:38.538Z,3.88
2022-09-12T11:32:42.332Z,4.18
2022-09-12T11:35:18.186Z,2.13
2022-09-12T11:38:30.495Z,2.10
2022-09-12T11:41:02.393Z,2.60
2022-09-12T11:43:40.248Z,2.08
2022-09-12T11:46:14.079Z,3.75
2022-09-12T11:48:57.693Z,1.92
2022-09-12T11:51:29.459Z,2.90
2022-09-12T11:54:23.232Z,3.38
2022-09-12T11:56:57.330Z,1.35
2022-09-12T11:59:52.614Z,2.42
2022-09-12T12:03:00.266Z,2.47
2022-09-12T12:05:35.610Z,3.00
2022-09-12T12:08:05.233Z,2.10
2022-09-12T12:10:51.403Z,1.45
2022-09-12T12:13:23.573Z,4.07
2022-09-12T12:15:55.005Z,4.28
2022-09-12T12:18:32.684Z,6.13
2022-09-12T12:21:40.224Z,3.13
2022-09-12T12:24:09.510Z,2.85
2022-09-12T12:26:38.965Z,1.85
2022-09-12T12:29:18.010Z,2.08
2022-09-12T12:31:59.961Z,2.60
2022-09-12T12:34:28.344Z,1.60
2022-09-12T12:36:55.290Z,2.97
2022-09-12T12:39:45.937Z,3.00
2022-09-12T12:42:32.213Z,1.70
2022-09-12T12:45:00.156Z,1.35
2022-09-12T12:47:32.935Z,3.10
2022-09-12T12:50:05.448Z,2.28
2022-09-12T12:52:43.160Z,2.67
2022-09-12T12:55:16.290Z,1.50
2022-09-12T12:57:58.650Z,2.67
2022-09-12T13:00:25.165Z,3.88
2022-09-12T13:03:09.583Z,5.00
2022-09-12T13:05:42.686Z,2.13
2022-09-12T13:08:18.093Z,2.55
2022-09-12T13:10:58.028Z,2.25
2022-09-12T13:13:34.168Z,2.22
2022-09-12T13:16:00.618Z,3.90
2022-09-12T13:18:40.744Z,2.97
2022-09-12T13:21:21.627Z,1.88
2022-09-12T13:24:04.210Z,5.32
2022-09-12T13:26:40.301Z,4.00
2022-09-12T13:29:17.977Z,3.90
2022-09-12T13:31:47.903Z,3.38
2022-09-12T13:34:20.979Z,3.40
2022-09-12T13:37:24.905Z,2.10
2022-09-12T13:40:19.682Z,2.42
2022-09-12T13:42:49.551Z,2.78
2022-09-12T13:45:20.852Z,4.15
2022-09-12T13:47:55.359Z,2.38
2022-09-12T13:50:27.126Z,1.50
2022-09-12T13:53:00.268Z,3.67
2022-09-12T13:55:41.447Z,1.40
2022-09-12T13:58:17.060Z,3.70
2022-09-12T14:00:43.538Z,2.90
2022-09-12T14:03:49.647Z,3.05
2022-09-12T14:06:18.791Z,1.40
2022-09-12T14:08:47.978Z,3.00
2022-09-12T14:11:25.157Z,3.75
2022-09-12T14:13:52.548Z,3.42
2022-09-12T14:16:23.838Z,2.55
2022-09-12T14:18:51.827Z,3.83
2022-09-12T14:21:32.589Z,2.92
2022-09-12T14:24:00.683Z,3.55
2022-09-12T14:26:32.408Z,1.77
2022-09-12T14:29:00.378Z,2.80
2022-09-12T14:31:32.344Z,5.22
2022-09-12T14:34:14.782Z,4.78
2022-09-12T14:36:44.076Z,2.30
2022-09-12T14:39:39.690Z,2.47
2022-09-12T14:42:17.904Z,2.13
2022-09-12T14:44:58.561Z,2.35
2022-09-12T14:47:27.534Z,2.60
2022-09-12T14:49:54.494Z,3.80
2022-09-12T14:52:29.191Z,4.13
2022-09-12T14:55:00.190Z,3.17
2022-09-12T14:57:42.188Z,5.05
2022-09-12T15:00:11.873Z,1.88
2022-09-12T15:02:39.384Z,3.03
2022-09-12T15:05:08.534Z,2.00
2022-09-12T15:07:53.722Z,2.67
2022-09-12T15:10:27.686Z,2.35
2022-09-12T15:13:09.396Z,2.47
2022-09-12T15:15:37.809Z,4.20
2022-09-12T15:18:06.736Z,4.90
2022-09-12T15:20:35.990Z,3.00
2022-09-12T15:23:02.616Z,3.28
2022-09-12T15:25:29.048Z,3.08
2022-09-12T15:27:56.407Z,3.97
2022-09-12T15:30:22.754Z,3.67
2022-09-12T15:32:49.221Z,2.13
2022-09-12T15:35:22.469Z,2.40
2022-09-12T15:37:49.600Z,3.78
2022-09-12T15:40:16.296Z,1.88
2022-09-12T15:42:42.770Z,2.03
2022-09-12T15:45:18.397Z,2.30
2022-09-12T15:47:45.030Z,2.35
2022-09-12T15:50:11.564Z,3.65
2022-09-12T15:52:38.032Z,3.15
2022-09-12T15:55:05.849Z,2.70
2022-09-12T15:57:32.207Z,2.33
2022-09-12T15:59:58.779Z,4.72
2022-09-12T16:02:25.198Z,4.65
2022-09-12T16:04:54.607Z,3.60
2022-09-12T16:07:21.524Z,2.80
2022-09-12T16:09:48.043Z,2.83
2022-09-12T16:12:14.419Z,3.45
2022-09-12T16:14:40.800Z,4.88
2022-09-12T16:17:07.979Z,3.28
2022-09-12T16:19:35.055Z,5.22
2022-09-12T16:22:01.517Z,3.88
2022-09-12T16:24:27.926Z,6.55
2022-09-12T16:26:56.865Z,2.53
2022-09-12T16:29:26.956Z,2.85
2022-09-12T16:31:53.387Z,3.22
2022-09-12T16:34:19.751Z,2.85
2022-09-12T16:36:46.985Z,3.65
2022-09-12T16:39:13.488Z,4.78
2022-09-12T16:41:42.516Z,3.40
2022-09-12T16:44:10.092Z,4.47
2022-09-12T16:46:36.584Z,4.28
2022-09-12T16:49:05.892Z,6.95
2022-09-12T16:51:35.742Z,4.25
2022-09-12T16:54:02.437Z,4.05
2022-09-12T16:56:28.821Z,3.92
2022-09-12T16:58:55.629Z,3.47
2022-09-12T17:01:24.849Z,3.85
2022-09-12T17:03:56.468Z,2.97
2022-09-12T17:06:23.398Z,4.90
2022-09-12T17:08:52.080Z,4.85
2022-09-12T17:11:21.684Z,3.83
2022-09-12T17:14:04.389Z,5.03
2022-09-12T17:16:35.880Z,3.70
2022-09-12T17:19:03.156Z,6.20
2022-09-12T17:21:29.668Z,3.88
2022-09-12T17:23:56.244Z,3.72
2022-09-12T17:26:22.731Z,5.57
2022-09-12T17:28:49.532Z,4.03
2022-09-12T17:31:16.269Z,4.82
2022-09-12T17:33:43.392Z,4.07
2022-09-12T17:36:15.069Z,4.95
2022-09-12T17:38:42.808Z,7.18
2022-09-12T17:41:18.075Z,5.40
2022-09-12T17:43:46.276Z,4.45
2022-09-12T17:46:13.902Z,3.22
2022-09-12T17:48:40.360Z,3.95
2022-09-12T17:51:08.889Z,4.57
2022-09-12T17:53:35.414Z,5.45
2022-09-12T17:56:06.152Z,8.63
2022-09-12T17:58:33.184Z,7.00
2022-09-12T18:01:24.417Z,3.90
2022-09-12T18:03:54.826Z,4.93
2022-09-12T18:06:22.921Z,5.60
2022-09-12T18:08:49.291Z,4.93
2022-09-12T18:11:15.983Z,4.82
2022-09-12T18:13:42.491Z,5.95
2022-09-12T18:16:11.451Z,6.72
2022-09-12T18:18:38.501Z,5.32
2022-09-12T18:21:06.952Z,4.95
2022-09-12T18:23:34.372Z,6.80
2022-09-12T18:26:03.676Z,6.88
2022-09-12T18:28:32.849Z,9.18
2022-09-12T18:30:59.426Z,7.30
2022-09-12T18:33:25.939Z,6.57
2022-09-12T18:35:52.330Z,6.00
2022-09-12T18:38:18.807Z,4.97
2022-09-12T18:40:45.382Z,5.75
2022-09-12T18:43:11.786Z,9.00
2022-09-12T18:45:38.272Z,4.88
2022-09-12T18:48:06.023Z,5.45
2022-09-12T18:50:33.094Z,5.72
2022-09-12T18:52:59.973Z,6.43
2022-09-12T18:55:26.633Z,4.63
2022-09-12T18:57:54.704Z,6.35
2022-09-12T19:00:21.232Z,3.83
2022-09-12T19:02:47.728Z,6.78
2022-09-12T19:05:14.134Z,5.00
2022-09-12T19:07:41.108Z,6.13
2022-09-12T19:10:08.860Z,5.75
2022-09-12T19:12:35.293Z,4.38
2022-09-12T19:15:01.759Z,4.90
2022-09-12T19:17:28.126Z,7.63
2022-09-12T19:19:55.388Z,4.43
2022-09-12T19:22:22.126Z,9.38
2022-09-12T19:24:48.547Z,6.75
2022-09-12T19:27:15.984Z,4.53
2022-09-12T19:29:42.486Z,5.25
2022-09-12T19:32:08.986Z,6.88
2022-09-12T19:34:35.463Z,4.15
2022-09-12T19:37:01.958Z,5.85
2022-09-12T19:39:28.404Z,4.22
2022-09-12T19:41:54.765Z,7.60
2022-09-12T19:44:21.499Z,4.65
2022-09-12T19:46:48.038Z,5.75
2022-09-12T19:49:14.667Z,5.72
2022-09-12T19:51:41.186Z,7.10
2022-09-12T19:54:07.685Z,6.95
2022-09-12T19:56:34.246Z,4.43
2022-09-12T19:59:00.609Z,7.50
2022-09-12T20:01:30.437Z,6.35
2022-09-12T20:03:57.872Z,3.65
2022-09-12T20:06:25.133Z,4.07
2022-09-12T20:08:51.543Z,6.18
2022-09-12T20:11:19.807Z,6.05
2022-09-12T20:13:47.385Z,6.05
2022-09-12T20:16:21.999Z,4.78
2022-09-12T20:18:58.195Z,4.57
2022-09-12T20:21:31.041Z,5.55
2022-09-12T20:24:12.549Z,5.20
2022-09-12T20:26:39.740Z,4.72
2022-09-12T20:29:06.844Z,5.40
2022-09-12T20:31:35.504Z,4.70
2022-09-12T20:34:02.386Z,5.50
2022-09-12T20:36:28.786Z,4.70
2022-09-12T20:38:58.347Z,5.20
2022-09-12T20:41:25.966Z,6.70
2022-09-12T20:43:53.123Z,4.32
2022-09-12T20:46:23.459Z,4.88
2022-09-12T20:48:51.214Z,4.72
2022-09-12T20:51:18.840Z,4.53
2022-09-12T20:53:45.414Z,7.25
2022-09-12T20:56:11.807Z,4.70
2022-09-12T20:58:43.077Z,6.65
2022-09-12T21:01:11.311Z,4.03
2022-09-12T21:03:39.228Z,5.90
2022-09-12T21:06:06.811Z,7.30
2022-09-12T21:08:33.592Z,8.02
2022-09-12T21:11:00.014Z,5.93
2022-09-12T21:13:26.383Z,6.57
2022-09-12T21:15:59.915Z,7.28
2022-09-12T21:18:26.544Z,8.32
2022-09-12T21:20:54.182Z,6.63
2022-09-12T21:23:21.162Z,7.40
2022-09-12T21:25:52.382Z,6.72
2022-09-12T21:28:19.485Z,10.75
2022-09-12T21:30:48.628Z,6.10
2022-09-12T21:33:15.434Z,5.32
2022-09-12T21:35:41.818Z,5.13
2022-09-12T21:38:08.276Z,5.90
2022-09-12T21:40:34.639Z,5.78
2022-09-12T21:43:01.124Z,6.03
2022-09-12T21:45:27.792Z,6.35
2022-09-12T21:47:54.205Z,4.75
2022-09-12T21:50:20.547Z,7.90
2022-09-12T21:52:47.080Z,8.30
2022-09-12T21:55:13.935Z,5.28
2022-09-12T21:57:40.559Z,6.10
2022-09-12T22:00:10.782Z,7.88
2022-09-12T22:02:37.231Z,7.25
2022-09-12T22:05:04.146Z,6.40
2022-09-12T22:07:30.890Z,6.38
2022-09-12T22:09:57.327Z,5.20
2022-09-12T22:12:24.578Z,4.60
2022-09-12T22:14:51.319Z,8.18
2022-09-12T22:17:17.747Z,7.75
2022-09-12T22:19:44.119Z,5.80
2022-09-12T22:22:29.458Z,10.77
2022-09-12T22:24:55.991Z,4.97
2022-09-12T22:27:22.745Z,6.63
2022-09-12T22:29:50.612Z,5.13
2022-09-12T22:32:17.392Z,6.93
2022-09-12T22:34:43.882Z,8.32
2022-09-12T22:37:13.136Z,6.60
2022-09-12T22:39:40.580Z,9.02
2022-09-12T22:42:07.632Z,5.57
2022-09-12T22:44:34.127Z,9.63
2022-09-12T22:47:00.665Z,5.40
2022-09-12T22:49:27.126Z,5.18
2022-09-12T22:51:53.535Z,5.82
2022-09-12T22:54:19.954Z,6.50
2022-09-12T22:56:46.333Z,6.18
2022-09-12T22:59:13.126Z,5.40
2022-09-12T23:01:39.461Z,4.47
2022-09-12T23:04:06.112Z,7.75
2022-09-12T23:06:32.630Z,4.93
2022-09-12T23:08:59.056Z,5.18
2022-09-12T23:11:25.387Z,6.30
2022-09-12T23:13:51.852Z,4.72
2022-09-12T23:16:24.754Z,5.82
2022-09-12T23:18:51.458Z,7.45
2022-09-12T23:21:20.680Z,4.55
2022-09-12T23:23:47.413Z,6.25
2022-09-12T23:26:17.230Z,6.20
2022-09-12T23:28:49.793Z,7.65
2022-09-12T23:31:16.827Z,8.10
2022-09-12T23:33:44.203Z,4.25
2022-09-12T23:36:14.798Z,3.92
2022-09-12T23:38:43.331Z,6.38
2022-09-12T23:41:11.092Z,7.38
2022-09-12T23:43:37.698Z,6.40
2022-09-12T23:46:05.111Z,6.90
2022-09-12T23:48:32.231Z,4.28
2022-09-12T23:50:59.645Z,4.10
2022-09-12T23:53:26.254Z,5.45
2022-09-12T23:55:53.058Z,6.25
2022-09-12T23:58:21.455Z,4.60
